»·PEaware :: FFT166 KJAC-KDEN

FFT166 :: KJAC-KDEN

FLIGHT INFORMATION

Flight Status: Arrived
Operator:
Frontier Airlines
More flights by this operator :: More flights under this callsign
Pilot: Jose A. (18565)
Aircraft: AIRBUS A320
(A320)
More flights by this aircraft type
Origin: KJAC Jackson Hole
United States
Destination: KDEN Denver Intl
United States
More flights between these airports :: More routes between these airports
Route: ALPIN2 KICNE OPPEE TSHNR3
File this flight plan on PilotEdge
Remarks:
Altitude:
(Current/Filed)
35,000ft
Speed:
(Current/Filed)
510kts
Departed: 20-Oct-19 08:44 AM
Arrived: 20-Oct-19 09:42 AM
Distance/Time
Traveled:
353nm/0:58
Distance/Time
To Go:
Arrived

Flight Plot

Page will automatically refresh every two minutes.

Flight plan parsing failed; only flown route is shown


Map Options




Map Legend


Flown Route
Filed Route
Departure Airport
Arrival Airport
Navaid (VOR, NDB)
Fix

Horizontal Profiles

Position Reports

Time Latitude Longitude Heading Altitude Ground
Speed
20-Oct-19 08:21 43.604256 -110.736686 109 6465ft 0kts
20-Oct-19 08:22 43.604256 -110.736686 109 6465ft 0kts
20-Oct-19 08:23 43.604256 -110.736686 109 6465ft 0kts
20-Oct-19 08:24 43.604256 -110.736686 109 6465ft 0kts
20-Oct-19 08:25 43.604256 -110.736686 109 6465ft 0kts
20-Oct-19 08:26 43.604256 -110.736686 109 6465ft 0kts
20-Oct-19 08:27 43.604256 -110.736686 109 6465ft 0kts
20-Oct-19 08:28 43.604256 -110.736686 109 6465ft 0kts
20-Oct-19 08:29 43.604256 -110.736686 109 6465ft 0kts
20-Oct-19 08:30 43.604256 -110.736686 109 6465ft 0kts
20-Oct-19 08:31 43.604256 -110.736686 109 6465ft 0kts
20-Oct-19 08:32 43.604256 -110.736686 109 6465ft 0kts
20-Oct-19 08:33 43.604324 -110.737007 96 6465ft 2kts
20-Oct-19 08:34 43.604127 -110.737701 19 6465ft 0kts
20-Oct-19 08:35 43.604127 -110.737701 19 6465ft 0kts
20-Oct-19 08:36 43.604129 -110.737700 19 6465ft 0kts
20-Oct-19 08:37 43.604131 -110.737699 19 6465ft 0kts
20-Oct-19 08:38 43.604546 -110.737501 19 6465ft 5kts
20-Oct-19 08:39 43.608162 -110.735756 19 6465ft 16kts
20-Oct-19 08:40 43.612742 -110.733532 19 6465ft 18kts
20-Oct-19 08:41 43.615004 -110.732388 290 6465ft 0kts
20-Oct-19 08:42 43.615276 -110.733402 282 6465ft 7kts
20-Oct-19 08:43 43.595576 -110.743205 201 7099ft 156kts
20-Oct-19 08:44 43.548257 -110.773160 206 9242ft 246kts
20-Oct-19 08:45 43.471414 -110.821404 207 10914ft 365kts
20-Oct-19 08:46 43.371121 -110.883981 207 13623ft 410kts
20-Oct-19 08:47 43.257940 -110.914341 169 16594ft 439kts
20-Oct-19 08:48 43.163516 -110.812596 113 19088ft 450kts
20-Oct-19 08:49 43.105911 -110.657168 112 21369ft 467kts
20-Oct-19 08:50 43.049426 -110.493998 113 23571ft 481kts
20-Oct-19 08:51 42.990958 -110.325500 113 25389ft 498kts
20-Oct-19 08:52 42.930565 -110.152498 112 27034ft 509kts
20-Oct-19 08:53 42.869331 -109.978209 113 28845ft 506kts
20-Oct-19 08:54 42.808822 -109.807101 113 30624ft 504kts
20-Oct-19 08:55 42.747295 -109.634349 112 31964ft 509kts
20-Oct-19 08:56 42.685245 -109.461106 113 33284ft 512kts
20-Oct-19 08:57 42.622494 -109.287007 112 34535ft 514kts
20-Oct-19 08:58 42.559270 -109.112688 113 34897ft 511kts
20-Oct-19 08:59 42.496436 -108.940572 113 34867ft 509kts
20-Oct-19 09:00 42.433283 -108.768684 114 34862ft 508kts
20-Oct-19 09:01 42.370242 -108.598042 114 34844ft 507kts
20-Oct-19 09:02 42.306935 -108.427789 114 34842ft 506kts
20-Oct-19 09:03 42.243403 -108.257966 115 34840ft 506kts
20-Oct-19 09:04 42.179828 -108.088961 115 34827ft 505kts
20-Oct-19 09:05 42.116030 -107.920404 115 34802ft 506kts
20-Oct-19 09:06 42.051728 -107.751465 115 34783ft 504kts
20-Oct-19 09:07 41.987565 -107.583961 116 34762ft 505kts
20-Oct-19 09:08 41.922993 -107.416389 116 34745ft 506kts
20-Oct-19 09:09 41.857977 -107.248531 116 34740ft 505kts
20-Oct-19 09:10 41.792944 -107.081646 117 34738ft 504kts
20-Oct-19 09:11 41.707061 -106.936957 138 34769ft 501kts
20-Oct-19 09:12 41.604211 -106.811401 138 34810ft 500kts
20-Oct-19 09:13 41.501289 -106.686627 139 34837ft 499kts
20-Oct-19 09:14 41.398239 -106.562455 139 34837ft 499kts
20-Oct-19 09:15 41.295148 -106.438947 139 34841ft 498kts
20-Oct-19 09:16 41.191674 -106.315565 139 34825ft 500kts
20-Oct-19 09:17 41.088287 -106.192853 139 34133ft 498kts
20-Oct-19 09:18 40.984861 -106.070669 140 33134ft 501kts
20-Oct-19 09:19 40.883358 -105.945290 129 32135ft 497kts
20-Oct-19 09:20 40.802465 -105.799055 127 28450ft 478kts
20-Oct-19 09:22 40.725878 -105.659775 126 26345ft 466kts
20-Oct-19 09:23 40.651121 -105.524777 126 22685ft 439kts
20-Oct-19 09:24 40.580760 -105.397311 126 20394ft 426kts
20-Oct-19 09:25 40.513020 -105.273959 127 19016ft 393kts
20-Oct-19 09:26 40.446927 -105.154273 127 18021ft 417kts
20-Oct-19 09:27 40.380160 -105.032805 127 16120ft 403kts
20-Oct-19 09:28 40.321458 -104.925266 127 14386ft 388kts
20-Oct-19 09:29 40.263926 -104.818511 127 13025ft 324kts
20-Oct-19 09:30 40.216088 -104.728389 127 13004ft 291kts
20-Oct-19 09:31 40.174667 -104.650109 126 11553ft 286kts
20-Oct-19 09:32 40.130676 -104.565296 127 9724ft 278kts
20-Oct-19 09:33 40.088606 -104.481572 126 8067ft 269kts
20-Oct-19 09:34 40.048340 -104.401043 129 8001ft 260kts
20-Oct-19 09:35 39.988374 -104.362797 179 7154ft 229kts
20-Oct-19 09:36 39.925859 -104.362537 187 7010ft 224kts
20-Oct-19 09:37 39.879570 -104.396379 256 7013ft 185kts
20-Oct-19 09:38 39.876259 -104.459713 271 7014ft 173kts
20-Oct-19 09:39 39.876593 -104.515420 271 6997ft 121kts
20-Oct-19 09:39 39.876867 -104.551805 270 6433ft 121kts
20-Oct-19 09:41 39.877218 -104.605077 270 5714ft 129kts
20-Oct-19 09:42 39.877465 -104.636941 269 5445ft 36kts
20-Oct-19 09:42 39.876622 -104.646182 244 5445ft 19kts
20-Oct-19 09:44 39.876485 -104.646504 239 5445ft 0kts
20-Oct-19 09:45 39.875902 -104.648462 266 5445ft 16kts
20-Oct-19 09:45 39.875948 -104.653748 270 5445ft 18kts
20-Oct-19 09:46 39.875993 -104.660720 269 5445ft 15kts
20-Oct-19 09:48 39.872730 -104.662165 180 5445ft 23kts
20-Oct-19 09:48 39.867124 -104.662228 181 5445ft 24kts
20-Oct-19 09:49 39.859962 -104.662300 180 5445ft 26kts
20-Oct-19 09:50 39.853359 -104.662378 184 5445ft 12kts
20-Oct-19 09:51 39.852763 -104.665955 265 5445ft 9kts
20-Oct-19 09:52 39.852770 -104.669536 270 5445ft 10kts
20-Oct-19 09:53 39.852860 -104.672489 319 5445ft 5kts
20-Oct-19 09:54 39.853376 -104.672556 1 5445ft 0kts
20-Oct-19 09:55 39.853376 -104.672556 1 5445ft 0kts

Navigation Log

Ident Type
Flight plan parsing failed, navigation log unavailable